Аэропорт: Михайловка. Барнаул

ICAO: UNBB

METAR:
2024-04-22 22:00:00
UNBB 222200Z 22006MPS CAVOK 05/M03 Q1016 R24/CLRD66 NOSIG RMK QFE739
TAF:
2024-04-22 20:00:00
TAF UNBB 222000Z 2221/2321 23003G08MPS 8000 BKN030CB 
  TEMPO 2221/2224 27008MPS 
  BECMG 2300/2303 32008G16MPS 
  BECMG 2313/2315 35003G08MPS